Weather at Croes-Carn-Einion Farm

Public forecast

Using degrees Celsius for public forecast. Weather courtesy of forecast.io.

Closest aviation weather report (METAR) to Croes-Carn-Einion Farm

Closest report is Cardiff International Airport, 14.4 nm (26.6 km) SW. Retrieved 2021/07/31 05:20 UTC (9 minutes ago):

EGFF 310520Z AUTO 30008KT 9999 NCD 14/13 Q1009

Closest aviation forecast (TAF) to Croes-Carn-Einion Farm

Closest forecast is Cardiff International Airport, 14.4 nm (26.6 km) SW. Retrieved 2021-07-31 00:00 UTC (5 hours ago):

TAF EGFF 302254Z 3100/3124 29009KT 9999 SCT040 PROB30 TEMPO 3100/3110 6000 SHRA BKN012 BKN025TCU PROB40 TEMPO 3110/3124 5000 SHRA